createdAt,value
2023-06-11T00:03:08.423Z,17.33
2023-06-11T00:08:11.135Z,17.23
2023-06-11T00:13:12.864Z,17.17
2023-06-11T00:18:15.549Z,17.11
2023-06-11T00:23:17.223Z,17.09
2023-06-11T00:28:19.642Z,17.07
2023-06-11T00:33:21.533Z,17.09
2023-06-11T00:38:23.319Z,17.08
2023-06-11T00:43:25.164Z,17.00
2023-06-11T00:48:27.185Z,16.89
2023-06-11T00:53:29.166Z,16.72
2023-06-11T00:58:31.140Z,16.66
2023-06-11T01:03:34.608Z,16.56
2023-06-11T01:08:41.983Z,16.50
2023-06-11T01:13:43.848Z,16.42
2023-06-11T01:19:05.021Z,16.28
2023-06-11T01:24:18.022Z,16.17
2023-06-11T01:29:23.494Z,16.05
2023-06-11T01:34:28.064Z,16.02
2023-06-11T01:39:30.210Z,16.01
2023-06-11T01:44:36.666Z,15.89
2023-06-11T01:49:38.388Z,15.81
2023-06-11T01:54:40.168Z,15.72
2023-06-11T01:59:41.911Z,15.67
2023-06-11T02:04:43.560Z,15.49
2023-06-11T02:09:45.373Z,15.42
2023-06-11T02:14:47.052Z,15.33
2023-06-11T02:19:48.790Z,15.15
2023-06-11T02:24:50.877Z,15.10
2023-06-11T02:29:53.108Z,15.06
2023-06-11T02:34:55.527Z,15.02
2023-06-11T02:39:57.280Z,14.96
2023-06-11T02:44:59.060Z,14.82
2023-06-11T02:50:00.893Z,14.71
2023-06-11T02:55:02.599Z,14.53
2023-06-11T03:00:04.887Z,14.50
2023-06-11T03:05:06.914Z,14.46
2023-06-11T03:10:09.182Z,14.33
2023-06-11T03:15:11.392Z,14.31
2023-06-11T03:20:14.322Z,14.33
2023-06-11T03:25:16.496Z,14.33
2023-06-11T03:30:18.742Z,14.26
2023-06-11T03:35:20.673Z,14.25
2023-06-11T03:40:23.292Z,14.15
2023-06-11T03:45:26.897Z,14.12
2023-06-11T03:50:28.579Z,14.20
2023-06-11T03:55:32.277Z,14.25
2023-06-11T04:00:34.128Z,14.32
2023-06-11T04:05:37.763Z,14.44
2023-06-11T04:10:40.937Z,14.48
2023-06-11T04:15:43.106Z,14.82
2023-06-11T04:20:46.736Z,15.48
2023-06-11T04:25:51.908Z,16.29
2023-06-11T04:30:59.057Z,17.10
2023-06-11T04:36:10.488Z,17.86
2023-06-11T04:41:14.887Z,18.00
2023-06-11T04:46:20.360Z,18.12
2023-06-11T04:51:24.976Z,17.57
2023-06-11T04:56:28.455Z,17.79
2023-06-11T05:01:31.511Z,17.87
2023-06-11T05:06:34.833Z,18.01
2023-06-11T05:11:38.380Z,18.59
2023-06-11T05:16:42.559Z,20.28
2023-06-11T05:21:46.099Z,20.62
2023-06-11T05:26:48.012Z,21.34
2023-06-11T05:31:52.148Z,22.90
2023-06-11T05:36:54.066Z,23.62
2023-06-11T05:41:55.842Z,23.60
2023-06-11T05:46:58.982Z,24.16
2023-06-11T05:52:01.730Z,25.10
2023-06-11T05:57:04.687Z,23.42
2023-06-11T06:02:07.188Z,24.18
2023-06-11T06:07:08.931Z,23.43
2023-06-11T06:12:11.595Z,24.44
2023-06-11T06:17:14.293Z,24.10
2023-06-11T06:22:17.508Z,23.22
2023-06-11T06:27:19.275Z,24.30
2023-06-11T06:32:21.390Z,24.40
2023-06-11T06:37:25.259Z,24.69
2023-06-11T06:42:27.077Z,23.71
2023-06-11T06:47:32.726Z,24.86
2023-06-11T06:52:34.974Z,23.16
2023-06-11T06:57:36.851Z,23.85
2023-06-11T07:02:38.684Z,24.40
2023-06-11T07:07:43.469Z,24.74
2023-06-11T07:12:46.561Z,23.68
2023-06-11T07:17:48.531Z,23.09
2023-06-11T07:22:52.691Z,23.64
2023-06-11T07:27:54.838Z,23.35
2023-06-11T07:32:57.510Z,22.58
2023-06-11T07:37:59.493Z,23.06
2023-06-11T07:43:01.618Z,23.20
2023-06-11T07:48:06.706Z,23.23
2023-06-11T07:53:10.009Z,23.99
2023-06-11T07:58:12.383Z,24.45
2023-06-11T08:03:14.313Z,23.97
2023-06-11T08:08:15.973Z,23.70
2023-06-11T08:13:17.725Z,24.31
2023-06-11T08:18:20.155Z,24.95
2023-06-11T08:23:22.103Z,24.85
2023-06-11T08:28:23.886Z,24.75
2023-06-11T08:33:25.760Z,24.80
2023-06-11T08:38:29.298Z,24.73
2023-06-11T08:43:31.055Z,23.82
2023-06-11T08:48:37.340Z,24.26
2023-06-11T08:53:40.524Z,24.90
2023-06-11T08:58:42.430Z,24.98
2023-06-11T09:03:44.221Z,25.06
2023-06-11T09:08:59.665Z,25.00
2023-06-11T09:14:02.334Z,25.07
2023-06-11T09:19:04.028Z,24.47
2023-06-11T09:24:10.096Z,23.98
2023-06-11T09:29:11.839Z,24.46
2023-06-11T09:34:17.647Z,24.88
2023-06-11T09:39:19.376Z,24.58
2023-06-11T09:44:21.897Z,24.30
2023-06-11T09:49:23.613Z,24.47
2023-06-11T09:54:25.699Z,24.57
2023-06-11T09:59:28.886Z,24.14
2023-06-11T10:04:30.806Z,24.24
2023-06-11T10:09:33.540Z,24.52
2023-06-11T10:14:36.262Z,24.72
2023-06-11T10:19:38.285Z,25.00
2023-06-11T10:24:40.025Z,24.61
2023-06-11T10:29:49.562Z,24.68
2023-06-11T10:34:56.251Z,24.95
2023-06-11T10:39:58.114Z,25.20
2023-06-11T10:44:59.985Z,25.00
2023-06-11T10:50:09.098Z,24.73
2023-06-11T10:55:12.203Z,24.65
2023-06-11T11:00:14.886Z,24.95
2023-06-11T11:05:16.668Z,24.95
2023-06-11T11:10:20.657Z,24.87
2023-06-11T11:15:22.882Z,24.91
2023-06-11T11:20:24.678Z,24.72
2023-06-11T11:25:31.232Z,24.52
2023-06-11T11:30:33.040Z,24.82
2023-06-11T11:35:46.787Z,24.88
2023-06-11T11:40:58.509Z,25.10
2023-06-11T11:46:00.376Z,25.06
2023-06-11T11:51:09.629Z,25.09
2023-06-11T11:56:11.520Z,24.83
2023-06-11T12:01:24.255Z,24.61
2023-06-11T12:06:26.754Z,24.62
2023-06-11T12:11:28.593Z,24.70
2023-06-11T12:16:30.349Z,24.71
2023-06-11T12:21:33.306Z,24.86
2023-06-11T12:26:34.945Z,25.24
2023-06-11T12:31:37.432Z,25.51
2023-06-11T12:36:39.938Z,25.70
2023-06-11T12:41:41.876Z,25.58
2023-06-11T12:46:43.626Z,25.50
2023-06-11T12:51:47.774Z,25.10
2023-06-11T12:56:49.449Z,24.96
2023-06-11T13:01:51.512Z,25.39
2023-06-11T13:06:53.381Z,25.60
2023-06-11T13:11:55.355Z,25.66
2023-06-11T13:16:57.126Z,25.70
2023-06-11T13:21:58.819Z,25.59
2023-06-11T13:27:00.864Z,25.71
2023-06-11T13:32:03.019Z,25.92
2023-06-11T13:37:04.757Z,25.75
2023-06-11T13:42:06.715Z,25.81
2023-06-11T13:47:09.548Z,25.83
2023-06-11T13:52:11.442Z,26.04
2023-06-11T13:57:13.186Z,25.55
2023-06-11T14:02:14.932Z,25.28
2023-06-11T14:07:16.675Z,25.50
2023-06-11T14:12:18.394Z,25.62
2023-06-11T14:17:20.098Z,25.61
2023-06-11T14:22:21.915Z,25.58
2023-06-11T14:27:23.585Z,25.57
2023-06-11T14:32:26.520Z,25.57
2023-06-11T14:37:28.413Z,25.62
2023-06-11T14:42:30.098Z,25.66
2023-06-11T14:47:31.922Z,25.55
2023-06-11T14:52:33.772Z,25.57
2023-06-11T14:57:35.763Z,25.68
2023-06-11T15:02:37.652Z,25.56
2023-06-11T15:07:39.513Z,25.26
2023-06-11T15:12:41.209Z,25.34
2023-06-11T15:17:43.020Z,25.53
2023-06-11T15:22:44.871Z,25.54
2023-06-11T15:27:50.998Z,25.51
2023-06-11T15:32:52.769Z,25.48
2023-06-11T15:37:54.469Z,25.51
2023-06-11T15:42:56.172Z,25.46
2023-06-11T15:47:57.931Z,25.43
2023-06-11T15:52:59.781Z,25.43
2023-06-11T15:58:01.535Z,25.33
2023-06-11T16:03:03.392Z,25.33
2023-06-11T16:08:05.308Z,25.36
2023-06-11T16:13:07.017Z,25.33
2023-06-11T16:18:08.722Z,25.29
2023-06-11T16:23:10.425Z,25.13
2023-06-11T16:28:12.729Z,25.11
2023-06-11T16:33:14.555Z,25.03
2023-06-11T16:38:16.278Z,25.03
2023-06-11T16:43:18.037Z,25.02
2023-06-11T16:48:19.824Z,24.95
2023-06-11T16:53:21.627Z,24.99
2023-06-11T16:58:23.366Z,24.93
2023-06-11T17:03:25.218Z,24.83
2023-06-11T17:08:27.325Z,24.79
2023-06-11T17:13:29.078Z,24.65
2023-06-11T17:18:31.371Z,24.62
2023-06-11T17:23:33.093Z,24.57
2023-06-11T17:28:34.836Z,24.52
2023-06-11T17:33:36.482Z,24.36
2023-06-11T17:38:38.161Z,24.33
2023-06-11T17:43:39.816Z,24.31
2023-06-11T17:48:41.517Z,24.31
2023-06-11T17:53:43.286Z,24.29
2023-06-11T17:58:45.099Z,24.24
2023-06-11T18:03:46.884Z,24.17
2023-06-11T18:08:49.312Z,24.06
2023-06-11T18:13:51.003Z,23.97
2023-06-11T18:18:53.555Z,23.90
2023-06-11T18:23:55.406Z,23.80
2023-06-11T18:28:57.314Z,23.71
2023-06-11T18:33:59.021Z,23.59
2023-06-11T18:39:00.767Z,23.50
2023-06-11T18:44:02.905Z,23.38
2023-06-11T18:49:17.114Z,23.25
2023-06-11T18:54:18.836Z,23.08
2023-06-11T18:59:20.577Z,22.96
2023-06-11T19:04:23.945Z,22.85
2023-06-11T19:09:26.201Z,22.73
2023-06-11T19:14:27.935Z,22.62
2023-06-11T19:19:29.660Z,22.52
2023-06-11T19:24:31.457Z,22.39
2023-06-11T19:29:33.178Z,22.25
2023-06-11T19:34:34.851Z,22.13
2023-06-11T19:39:36.519Z,22.00
2023-06-11T19:44:38.371Z,21.83
2023-06-11T19:49:40.109Z,21.70
2023-06-11T19:54:51.521Z,21.62
2023-06-11T19:59:53.768Z,21.49
2023-06-11T20:04:55.631Z,21.34
2023-06-11T20:09:57.869Z,21.25
2023-06-11T20:14:59.658Z,21.14
2023-06-11T20:20:01.334Z,21.03
2023-06-11T20:25:03.244Z,20.93
2023-06-11T20:30:05.367Z,20.83
2023-06-11T20:35:07.559Z,20.72
2023-06-11T20:40:10.123Z,20.64
2023-06-11T20:45:12.607Z,20.53
2023-06-11T20:50:14.608Z,20.38
2023-06-11T20:55:16.857Z,20.29
2023-06-11T21:00:18.742Z,20.19
2023-06-11T21:05:21.569Z,20.02
2023-06-11T21:10:23.568Z,19.88
2023-06-11T21:15:25.247Z,19.82
2023-06-11T21:20:27.125Z,19.73
2023-06-11T21:25:28.951Z,19.58
2023-06-11T21:30:30.686Z,19.40
2023-06-11T21:35:32.401Z,19.24
2023-06-11T21:40:34.061Z,19.12
2023-06-11T21:45:35.900Z,19.03
2023-06-11T21:50:37.592Z,18.92
2023-06-11T21:55:39.242Z,18.85
2023-06-11T22:00:40.969Z,18.86
2023-06-11T22:05:42.628Z,18.86
2023-06-11T22:10:44.552Z,18.77
2023-06-11T22:15:46.233Z,18.76
2023-06-11T22:20:48.122Z,18.64
2023-06-11T22:25:50.072Z,18.56
2023-06-11T22:30:56.913Z,18.42
2023-06-11T22:35:59.127Z,18.28
2023-06-11T22:41:00.783Z,18.22
2023-06-11T22:46:02.505Z,18.16
2023-06-11T22:51:10.612Z,18.08
2023-06-11T22:56:12.799Z,17.95
2023-06-11T23:01:14.542Z,17.89
2023-06-11T23:06:16.498Z,17.77
2023-06-11T23:11:18.716Z,17.69
2023-06-11T23:16:21.532Z,17.54
2023-06-11T23:21:23.339Z,17.39
2023-06-11T23:26:25.110Z,17.28
2023-06-11T23:31:27.329Z,17.15
2023-06-11T23:36:29.098Z,17.04
2023-06-11T23:41:30.748Z,16.97
2023-06-11T23:46:34.580Z,16.90
2023-06-11T23:51:36.303Z,16.89
2023-06-11T23:56:38.192Z,16.85
